createdAt,value
2022-12-29T00:01:46.731Z,65.80
2022-12-29T00:04:15.905Z,65.70
2022-12-29T00:06:44.305Z,65.40
2022-12-29T00:09:12.845Z,65.70
2022-12-29T00:11:42.685Z,65.60
2022-12-29T00:14:28.362Z,65.70
2022-12-29T00:16:56.451Z,65.60
2022-12-29T00:19:53.414Z,65.60
2022-12-29T00:22:38.966Z,65.70
2022-12-29T00:25:25.387Z,65.60
2022-12-29T00:28:12.121Z,65.60
2022-12-29T00:30:57.627Z,65.70
2022-12-29T00:33:45.887Z,65.50
2022-12-29T00:36:15.208Z,65.60
2022-12-29T00:39:01.736Z,65.60
2022-12-29T00:41:47.597Z,65.60
2022-12-29T00:44:16.657Z,65.50
2022-12-29T00:46:45.233Z,65.50
2022-12-29T00:49:32.880Z,65.60
2022-12-29T00:52:01.906Z,65.60
2022-12-29T00:54:30.284Z,65.70
2022-12-29T00:56:58.290Z,65.60
2022-12-29T00:59:28.130Z,65.60
2022-12-29T01:01:56.333Z,65.40
2022-12-29T01:04:26.049Z,65.40
2022-12-29T01:06:54.191Z,65.40
2022-12-29T01:09:39.114Z,65.50
2022-12-29T01:12:07.037Z,65.40
2022-12-29T01:14:36.552Z,65.40
2022-12-29T01:17:04.260Z,65.60
2022-12-29T01:19:32.298Z,65.50
2022-12-29T01:22:00.140Z,65.30
2022-12-29T01:24:28.122Z,65.40
2022-12-29T01:26:56.375Z,65.30
2022-12-29T01:29:24.379Z,65.20
2022-12-29T01:31:53.751Z,65.30
2022-12-29T01:34:21.718Z,65.20
2022-12-29T01:36:49.606Z,65.30
2022-12-29T01:39:17.325Z,65.30
2022-12-29T01:41:45.115Z,65.20
2022-12-29T01:44:57.930Z,65.30
2022-12-29T01:47:35.468Z,65.10
2022-12-29T01:50:06.711Z,65.10
2022-12-29T01:52:35.260Z,65.10
2022-12-29T01:55:03.535Z,65.30
2022-12-29T01:57:33.772Z,65.10
2022-12-29T02:00:04.348Z,65.20
2022-12-29T02:02:33.722Z,65.20
2022-12-29T02:05:04.651Z,65.20
2022-12-29T02:07:33.022Z,65.20
2022-12-29T02:10:01.257Z,65.20
2022-12-29T02:12:29.169Z,65.20
2022-12-29T02:14:58.546Z,65.20
2022-12-29T02:17:44.702Z,65.20
2022-12-29T02:20:55.521Z,65.10
2022-12-29T02:23:46.738Z,65.10
2022-12-29T02:26:30.100Z,65.20
2022-12-29T02:29:16.984Z,65.20
2022-12-29T02:31:47.502Z,65.20
2022-12-29T02:34:19.782Z,65.40
2022-12-29T02:36:49.047Z,65.30
2022-12-29T02:39:20.892Z,65.30
2022-12-29T02:41:53.358Z,65.40
2022-12-29T02:44:27.003Z,65.50
2022-12-29T02:46:57.245Z,65.30
2022-12-29T02:49:28.689Z,65.30
2022-12-29T02:51:58.223Z,65.30
2022-12-29T02:54:44.615Z,65.30
2022-12-29T02:57:13.812Z,65.30
2022-12-29T02:59:42.410Z,65.30
2022-12-29T03:02:22.196Z,65.20
2022-12-29T03:05:00.634Z,65.10
2022-12-29T03:07:32.088Z,65.10
2022-12-29T03:10:02.945Z,65.10
2022-12-29T03:12:49.997Z,65.20
2022-12-29T03:15:38.297Z,65.20
2022-12-29T03:18:08.809Z,65.20
2022-12-29T03:20:39.939Z,65.20
2022-12-29T03:23:07.933Z,65.30
2022-12-29T03:25:37.685Z,65.20
2022-12-29T03:28:06.888Z,65.30
2022-12-29T03:30:35.292Z,65.20
2022-12-29T03:33:04.275Z,65.20
2022-12-29T03:35:35.410Z,65.20
2022-12-29T03:38:07.588Z,65.30
2022-12-29T03:40:35.561Z,65.20
2022-12-29T03:43:22.407Z,65.10
2022-12-29T03:45:50.772Z,65.00
2022-12-29T03:48:18.758Z,65.00
2022-12-29T03:54:33.057Z,64.90
2022-12-29T03:57:10.628Z,65.10
2022-12-29T03:59:38.526Z,65.00
2022-12-29T04:05:29.647Z,64.90
2022-12-29T04:07:57.740Z,65.20
2022-12-29T04:10:27.018Z,65.10
2022-12-29T04:12:54.787Z,65.10
2022-12-29T04:15:22.730Z,65.10
2022-12-29T04:17:50.711Z,65.00
2022-12-29T04:20:36.478Z,65.10
2022-12-29T04:23:05.033Z,65.10
2022-12-29T04:25:34.680Z,65.00
2022-12-29T04:28:03.202Z,65.00
2022-12-29T04:30:31.246Z,65.10
2022-12-29T04:32:59.210Z,65.10
2022-12-29T04:35:27.095Z,65.10
2022-12-29T04:37:55.450Z,65.10
2022-12-29T04:40:24.191Z,65.30
2022-12-29T04:42:53.973Z,65.30
2022-12-29T04:45:21.956Z,65.20
2022-12-29T04:47:49.872Z,65.30
2022-12-29T04:50:18.359Z,65.20
2022-12-29T04:52:46.335Z,65.20
2022-12-29T04:55:14.729Z,65.10
2022-12-29T04:57:42.773Z,65.10
2022-12-29T05:00:14.950Z,65.10
2022-12-29T05:02:42.885Z,65.10
2022-12-29T05:05:11.329Z,65.10
2022-12-29T05:07:39.220Z,65.00
2022-12-29T05:10:08.490Z,65.10
2022-12-29T05:12:37.077Z,65.10
2022-12-29T05:15:05.760Z,65.10
2022-12-29T05:17:34.833Z,65.10
2022-12-29T05:20:02.727Z,65.10
2022-12-29T05:22:31.131Z,65.20
2022-12-29T05:24:58.852Z,65.10
2022-12-29T05:27:27.019Z,65.20
2022-12-29T05:29:54.835Z,65.20
2022-12-29T05:32:22.633Z,65.00
2022-12-29T05:34:51.964Z,65.00
2022-12-29T05:37:20.375Z,65.00
2022-12-29T05:39:48.144Z,65.10
2022-12-29T05:42:16.384Z,65.00
2022-12-29T05:44:45.091Z,65.00
2022-12-29T05:47:13.419Z,65.00
2022-12-29T05:49:42.432Z,64.80
2022-12-29T05:52:11.848Z,64.90
2022-12-29T05:54:40.245Z,64.80
2022-12-29T05:57:08.249Z,64.90
2022-12-29T05:59:36.237Z,64.90
2022-12-29T06:02:04.140Z,64.90
2022-12-29T06:04:31.977Z,64.70
2022-12-29T06:07:00.179Z,64.80
2022-12-29T06:09:29.295Z,64.80
2022-12-29T06:11:57.464Z,65.50
2022-12-29T06:14:25.404Z,64.70
2022-12-29T06:16:53.840Z,64.80
2022-12-29T06:19:21.801Z,64.70
2022-12-29T06:21:50.254Z,64.80
2022-12-29T06:24:18.020Z,64.80
2022-12-29T06:26:47.794Z,64.80
2022-12-29T06:29:18.161Z,64.80
2022-12-29T06:31:47.142Z,64.80
2022-12-29T06:34:15.243Z,64.70
2022-12-29T06:36:43.309Z,64.60
2022-12-29T06:39:12.468Z,64.70
2022-12-29T06:41:40.361Z,64.60
2022-12-29T06:44:09.991Z,64.70
2022-12-29T06:46:37.784Z,64.70
2022-12-29T06:49:05.707Z,64.60
2022-12-29T06:51:33.471Z,64.70
2022-12-29T06:54:01.641Z,64.60
2022-12-29T06:56:29.425Z,64.50
2022-12-29T06:58:57.378Z,64.50
2022-12-29T07:01:27.130Z,64.60
2022-12-29T07:03:54.906Z,64.50
2022-12-29T07:06:23.152Z,64.50
2022-12-29T07:08:50.883Z,64.50
2022-12-29T07:11:19.019Z,64.50
2022-12-29T07:13:46.759Z,64.50
2022-12-29T07:16:14.967Z,64.60
2022-12-29T07:18:44.392Z,64.40
2022-12-29T07:21:12.908Z,64.50
2022-12-29T07:23:40.883Z,64.30
2022-12-29T07:26:09.981Z,64.30
2022-12-29T07:28:39.015Z,64.30
2022-12-29T07:31:07.202Z,64.30
2022-12-29T07:33:35.073Z,64.40
2022-12-29T07:36:04.214Z,64.40
2022-12-29T07:38:32.529Z,64.40
2022-12-29T07:41:00.297Z,64.30
2022-12-29T07:43:28.382Z,64.30
2022-12-29T07:45:56.222Z,64.30
2022-12-29T07:48:24.426Z,64.20
2022-12-29T07:50:52.184Z,64.30
2022-12-29T07:53:21.719Z,64.20
2022-12-29T07:55:49.630Z,64.10
2022-12-29T07:58:18.086Z,64.20
2022-12-29T08:00:46.052Z,64.10
2022-12-29T08:03:14.102Z,64.20
2022-12-29T08:05:42.646Z,64.10
2022-12-29T08:08:10.462Z,64.10
2022-12-29T08:10:40.101Z,64.00
2022-12-29T08:13:07.903Z,64.00
2022-12-29T08:15:36.163Z,64.00
2022-12-29T08:18:04.842Z,64.00
2022-12-29T08:20:33.234Z,63.90
2022-12-29T08:23:00.927Z,63.90
2022-12-29T08:25:29.300Z,63.90
2022-12-29T08:27:58.565Z,63.80
2022-12-29T08:30:26.711Z,63.70
2022-12-29T08:32:54.611Z,63.70
2022-12-29T08:35:22.687Z,63.80
2022-12-29T08:37:50.871Z,63.50
2022-12-29T08:40:18.753Z,63.50
2022-12-29T08:42:47.110Z,63.40
2022-12-29T08:45:16.504Z,63.40
2022-12-29T08:47:44.613Z,63.20
2022-12-29T08:50:12.888Z,63.40
2022-12-29T08:52:41.062Z,63.20
2022-12-29T08:55:09.751Z,63.40
2022-12-29T08:57:37.931Z,63.20
2022-12-29T09:00:06.580Z,62.90
2022-12-29T09:02:35.835Z,63.00
2022-12-29T09:05:03.695Z,63.00
2022-12-29T09:07:32.148Z,63.10
2022-12-29T09:09:59.886Z,62.90
2022-12-29T09:12:32.978Z,62.90
2022-12-29T09:15:04.407Z,62.80
2022-12-29T09:17:47.321Z,62.80
2022-12-29T09:20:18.137Z,62.60
2022-12-29T09:22:46.013Z,62.30
2022-12-29T09:25:14.308Z,62.60
2022-12-29T09:27:42.137Z,62.60
2022-12-29T09:30:11.965Z,62.40
2022-12-29T09:32:44.837Z,62.40
2022-12-29T09:35:14.073Z,62.40
2022-12-29T09:37:43.708Z,62.40
2022-12-29T09:40:19.271Z,62.30
2022-12-29T09:42:50.974Z,62.20
2022-12-29T09:45:20.989Z,61.90
2022-12-29T09:47:48.870Z,62.00
2022-12-29T09:50:22.217Z,61.90
2022-12-29T09:52:56.778Z,61.90
2022-12-29T09:55:26.314Z,61.80
2022-12-29T09:57:56.459Z,61.90
2022-12-29T10:00:29.559Z,61.70
2022-12-29T10:03:00.797Z,61.60
2022-12-29T10:05:42.394Z,61.70
2022-12-29T10:08:22.644Z,61.80
2022-12-29T10:10:55.059Z,61.90
2022-12-29T10:13:28.702Z,61.70
2022-12-29T10:16:02.250Z,61.40
2022-12-29T10:18:40.107Z,61.30
2022-12-29T10:21:10.299Z,61.00
2022-12-29T10:23:44.619Z,61.30
2022-12-29T10:26:16.464Z,61.20
2022-12-29T10:28:45.758Z,61.10
2022-12-29T10:31:16.061Z,61.00
2022-12-29T10:33:45.136Z,61.10
2022-12-29T10:36:16.288Z,61.00
2022-12-29T10:38:48.888Z,60.90
2022-12-29T10:41:18.551Z,61.10
2022-12-29T10:43:47.802Z,61.00
2022-12-29T10:46:16.803Z,60.60
2022-12-29T10:48:48.037Z,60.70
2022-12-29T10:51:20.871Z,60.60
2022-12-29T10:53:51.307Z,60.80
2022-12-29T10:56:24.098Z,60.60
2022-12-29T10:58:51.983Z,60.50
2022-12-29T11:01:21.565Z,60.60
2022-12-29T11:04:00.139Z,60.50
2022-12-29T11:06:28.792Z,60.60
2022-12-29T11:08:58.778Z,60.60
2022-12-29T11:11:28.044Z,60.60
2022-12-29T11:14:00.339Z,60.50
2022-12-29T11:16:33.314Z,60.40
2022-12-29T11:19:03.842Z,60.70
2022-12-29T11:21:35.850Z,60.70
2022-12-29T11:24:06.218Z,60.60
2022-12-29T11:26:35.392Z,60.60
2022-12-29T11:29:23.351Z,60.70
2022-12-29T11:31:52.737Z,60.50
2022-12-29T11:34:21.958Z,60.60
2022-12-29T11:36:50.387Z,60.50
2022-12-29T11:39:30.271Z,60.60
2022-12-29T11:41:58.671Z,60.40
2022-12-29T11:44:27.074Z,60.50
2022-12-29T11:46:55.465Z,60.40
2022-12-29T11:49:24.871Z,60.30
2022-12-29T11:51:53.633Z,60.10
2022-12-29T11:54:23.556Z,60.10
2022-12-29T11:56:53.652Z,59.80
2022-12-29T11:59:38.940Z,59.80
2022-12-29T12:02:26.286Z,59.70
2022-12-29T12:05:02.520Z,59.70
2022-12-29T12:07:37.128Z,59.70
2022-12-29T12:10:08.093Z,59.90
2022-12-29T12:12:40.126Z,60.00
2022-12-29T12:15:10.445Z,59.90
2022-12-29T12:17:39.486Z,59.90
2022-12-29T12:20:17.227Z,59.90
2022-12-29T12:22:47.903Z,64.30
2022-12-29T12:25:18.852Z,62.90
2022-12-29T12:27:51.072Z,62.70
2022-12-29T12:30:20.348Z,62.40
2022-12-29T12:32:50.919Z,61.80
2022-12-29T12:35:26.967Z,61.70
2022-12-29T12:38:11.639Z,61.30
2022-12-29T12:40:51.369Z,62.10
2022-12-29T12:43:30.298Z,62.00
2022-12-29T12:46:26.580Z,62.20
2022-12-29T12:49:05.095Z,61.90
2022-12-29T12:51:35.955Z,61.70
2022-12-29T12:54:10.335Z,61.80
2022-12-29T12:56:54.833Z,61.60
2022-12-29T12:59:32.576Z,61.20
2022-12-29T13:02:03.566Z,61.20
2022-12-29T13:04:41.181Z,61.30
2022-12-29T13:07:16.514Z,61.20
2022-12-29T13:09:50.445Z,61.50
2022-12-29T13:12:25.713Z,61.30
2022-12-29T13:15:01.200Z,61.40
2022-12-29T13:17:32.492Z,61.60
2022-12-29T13:20:04.091Z,61.60
2022-12-29T13:22:34.622Z,61.40
2022-12-29T13:25:13.455Z,61.50
2022-12-29T13:27:43.585Z,61.30
2022-12-29T13:30:15.288Z,61.40
2022-12-29T13:32:51.333Z,61.40
2022-12-29T13:35:39.399Z,61.50
2022-12-29T13:38:11.447Z,61.60
2022-12-29T13:40:42.401Z,61.70
2022-12-29T13:43:10.472Z,61.50
2022-12-29T13:45:39.969Z,61.20
2022-12-29T13:48:09.126Z,61.10
2022-12-29T13:50:39.414Z,60.80
2022-12-29T13:53:13.256Z,60.80
2022-12-29T13:55:43.827Z,60.90
2022-12-29T13:58:18.549Z,60.80
2022-12-29T14:00:51.365Z,61.00
2022-12-29T14:03:30.161Z,61.00
2022-12-29T14:06:16.166Z,61.00
2022-12-29T14:08:45.120Z,61.70
2022-12-29T14:11:13.407Z,61.00
2022-12-29T14:13:41.965Z,61.20
2022-12-29T14:16:13.335Z,61.40
2022-12-29T14:18:44.459Z,61.30
2022-12-29T14:21:19.746Z,61.30
2022-12-29T14:23:48.622Z,61.50
2022-12-29T14:26:21.005Z,61.40
2022-12-29T14:28:49.283Z,61.30
2022-12-29T14:31:41.787Z,61.40
2022-12-29T14:34:32.787Z,61.30
2022-12-29T14:37:01.184Z,61.30
2022-12-29T14:39:34.927Z,61.40
2022-12-29T14:42:03.271Z,62.20
2022-12-29T14:44:31.362Z,61.60
2022-12-29T14:47:06.928Z,61.50
2022-12-29T14:49:41.191Z,61.40
2022-12-29T14:52:15.166Z,61.50
2022-12-29T14:54:46.284Z,61.40
2022-12-29T14:57:20.934Z,61.50
2022-12-29T14:59:49.418Z,61.50
2022-12-29T15:02:21.162Z,61.60
2022-12-29T15:05:02.890Z,61.60
2022-12-29T15:07:31.475Z,61.70
2022-12-29T15:10:02.514Z,61.70
2022-12-29T15:12:35.881Z,61.80
2022-12-29T15:15:04.073Z,61.70
2022-12-29T15:17:34.363Z,61.70
2022-12-29T15:20:02.988Z,61.70
2022-12-29T15:22:30.962Z,61.70
2022-12-29T15:24:59.392Z,61.90
2022-12-29T15:27:28.079Z,61.80
2022-12-29T15:30:00.195Z,61.90
2022-12-29T15:32:29.392Z,61.70
2022-12-29T15:35:01.077Z,61.90
2022-12-29T15:37:30.091Z,61.80
2022-12-29T15:39:58.126Z,61.90
2022-12-29T15:42:47.539Z,62.10
2022-12-29T15:45:15.879Z,62.20
2022-12-29T15:47:44.487Z,62.10
2022-12-29T15:50:19.773Z,62.00
2022-12-29T15:52:47.789Z,62.00
2022-12-29T15:55:22.369Z,62.10
2022-12-29T15:57:50.257Z,62.10
2022-12-29T16:00:26.926Z,62.20
2022-12-29T16:02:55.617Z,62.30
2022-12-29T16:05:25.631Z,62.00
2022-12-29T16:07:54.413Z,62.10
2022-12-29T16:10:27.668Z,62.10
2022-12-29T16:12:55.694Z,62.10
2022-12-29T16:15:23.870Z,62.10
2022-12-29T16:17:53.344Z,62.00
2022-12-29T16:20:22.574Z,61.80
2022-12-29T16:22:52.560Z,61.90
2022-12-29T16:25:24.136Z,61.90
2022-12-29T16:27:52.058Z,61.90
2022-12-29T16:30:25.337Z,61.90
2022-12-29T16:32:56.513Z,61.80
2022-12-29T16:35:25.205Z,62.00
2022-12-29T16:38:16.429Z,62.10
2022-12-29T16:41:03.379Z,62.80
2022-12-29T16:43:32.542Z,63.00
2022-12-29T16:46:24.597Z,62.80
2022-12-29T16:48:54.382Z,62.60
2022-12-29T16:51:27.671Z,62.60
2022-12-29T16:54:00.255Z,62.70
2022-12-29T16:56:29.804Z,62.60
2022-12-29T16:59:03.520Z,62.80
2022-12-29T17:01:31.774Z,62.70
2022-12-29T17:04:01.635Z,62.60
2022-12-29T17:06:30.422Z,62.50
2022-12-29T17:09:00.022Z,62.50
2022-12-29T17:11:53.937Z,62.40
2022-12-29T17:14:37.724Z,62.40
2022-12-29T17:17:06.778Z,62.30
2022-12-29T17:19:35.302Z,62.40
2022-12-29T17:22:03.275Z,62.20
2022-12-29T17:24:33.234Z,62.20
2022-12-29T17:27:01.153Z,62.10
2022-12-29T17:29:33.436Z,61.80
2022-12-29T17:32:01.442Z,61.80
2022-12-29T17:34:29.429Z,61.60
2022-12-29T17:36:57.465Z,61.60
2022-12-29T17:39:25.738Z,61.60
2022-12-29T17:41:55.092Z,61.50
2022-12-29T17:44:28.798Z,61.40
2022-12-29T17:46:56.993Z,61.40
2022-12-29T17:49:25.091Z,61.20
2022-12-29T17:51:52.999Z,61.40
2022-12-29T17:54:22.341Z,61.30
2022-12-29T17:56:50.524Z,61.40
2022-12-29T17:59:20.536Z,61.30
2022-12-29T18:01:50.518Z,61.30
2022-12-29T18:04:21.300Z,61.30
2022-12-29T18:06:49.286Z,61.30
2022-12-29T18:09:21.084Z,61.30
2022-12-29T18:11:48.964Z,61.30
2022-12-29T18:14:17.791Z,61.30
2022-12-29T18:16:47.487Z,61.40
2022-12-29T18:19:15.409Z,61.20
2022-12-29T18:21:43.284Z,61.20
2022-12-29T18:24:14.678Z,61.40
2022-12-29T18:26:43.447Z,61.10
2022-12-29T18:29:11.670Z,63.40
2022-12-29T18:31:40.732Z,69.70
2022-12-29T18:34:16.561Z,67.30
2022-12-29T18:36:44.365Z,65.60
2022-12-29T18:39:12.460Z,65.10
2022-12-29T18:41:40.565Z,64.70
2022-12-29T18:44:12.125Z,64.80
2022-12-29T18:46:40.541Z,63.80
2022-12-29T18:49:09.974Z,63.70
2022-12-29T18:51:38.270Z,63.40
2022-12-29T18:54:06.191Z,63.40
2022-12-29T18:56:34.184Z,63.30
2022-12-29T18:59:02.135Z,63.30
2022-12-29T19:01:31.467Z,63.00
2022-12-29T19:03:59.410Z,63.10
2022-12-29T19:06:28.786Z,63.10
2022-12-29T19:08:56.645Z,62.90
2022-12-29T19:11:24.849Z,62.90
2022-12-29T19:13:52.561Z,63.00
2022-12-29T19:16:22.000Z,63.00
2022-12-29T19:19:05.702Z,62.80
2022-12-29T19:21:37.525Z,62.60
2022-12-29T19:24:05.578Z,62.80
2022-12-29T19:26:36.708Z,62.80
2022-12-29T19:29:05.323Z,62.90
2022-12-29T19:31:33.528Z,62.80
2022-12-29T19:34:01.968Z,62.90
2022-12-29T19:36:30.300Z,62.80
2022-12-29T19:38:59.384Z,62.80
2022-12-29T19:41:27.162Z,62.70
2022-12-29T19:43:54.915Z,62.80
2022-12-29T19:46:23.847Z,62.90
2022-12-29T19:48:51.855Z,62.80
2022-12-29T19:51:19.783Z,62.90
2022-12-29T19:53:47.857Z,63.00
2022-12-29T19:56:17.397Z,62.90
2022-12-29T19:58:47.765Z,62.80
2022-12-29T20:01:17.015Z,63.00
2022-12-29T20:03:45.066Z,63.00
2022-12-29T20:06:13.109Z,63.10
2022-12-29T20:08:41.192Z,62.90
2022-12-29T20:11:10.217Z,62.80
2022-12-29T20:13:39.379Z,62.80
2022-12-29T20:16:08.498Z,62.60
2022-12-29T20:18:36.452Z,62.60
2022-12-29T20:21:04.644Z,62.80
2022-12-29T20:23:32.509Z,62.50
2022-12-29T20:26:00.977Z,62.70
2022-12-29T20:28:29.200Z,62.90
2022-12-29T20:31:00.237Z,62.70
2022-12-29T20:33:28.292Z,62.60
2022-12-29T20:36:05.647Z,62.70
2022-12-29T20:38:33.526Z,62.60
2022-12-29T20:41:01.487Z,62.70
2022-12-29T20:43:29.844Z,62.60
2022-12-29T20:45:59.123Z,62.60
2022-12-29T20:48:27.579Z,62.50
2022-12-29T20:50:59.249Z,62.60
2022-12-29T20:53:27.782Z,62.60
2022-12-29T20:55:55.562Z,62.50
2022-12-29T20:58:24.639Z,62.50
2022-12-29T21:00:52.770Z,62.40
2022-12-29T21:03:21.930Z,62.40
2022-12-29T21:05:49.685Z,62.30
2022-12-29T21:08:17.849Z,62.50
2022-12-29T21:10:47.374Z,62.50
2022-12-29T21:13:15.511Z,62.40
2022-12-29T21:15:43.414Z,62.40
2022-12-29T21:18:11.668Z,62.40
2022-12-29T21:20:40.683Z,62.40
2022-12-29T21:23:08.369Z,62.40
2022-12-29T21:25:38.044Z,62.10
2022-12-29T21:28:06.007Z,62.20
2022-12-29T21:30:34.011Z,62.20
2022-12-29T21:33:01.934Z,62.50
2022-12-29T21:35:30.374Z,62.60
2022-12-29T21:37:59.715Z,62.60
2022-12-29T21:40:27.575Z,62.40
2022-12-29T21:42:55.909Z,62.40
2022-12-29T21:45:25.422Z,62.40
2022-12-29T21:48:10.947Z,62.50
2022-12-29T21:51:00.104Z,62.30
2022-12-29T21:53:38.979Z,62.50
2022-12-29T21:56:07.634Z,62.60
2022-12-29T21:58:53.465Z,62.40
2022-12-29T22:01:39.089Z,62.50
2022-12-29T22:04:25.106Z,62.30
2022-12-29T22:07:10.297Z,62.40
2022-12-29T22:09:57.472Z,62.30
2022-12-29T22:12:44.938Z,62.20
2022-12-29T22:15:13.244Z,62.30
2022-12-29T22:17:46.680Z,62.40
2022-12-29T22:20:18.812Z,62.40
2022-12-29T22:22:49.233Z,62.30
2022-12-29T22:25:18.835Z,62.40
2022-12-29T22:27:46.981Z,62.30
2022-12-29T22:30:18.316Z,62.50
2022-12-29T22:32:49.442Z,62.20
2022-12-29T22:35:18.048Z,62.30
2022-12-29T22:37:51.888Z,62.30
2022-12-29T22:40:21.384Z,62.20
2022-12-29T22:42:52.658Z,62.10
2022-12-29T22:45:20.827Z,62.30
2022-12-29T22:47:48.849Z,62.40
2022-12-29T22:50:18.901Z,62.30
2022-12-29T22:52:47.056Z,62.40
2022-12-29T22:55:18.476Z,62.40
2022-12-29T22:57:48.004Z,62.30
2022-12-29T23:00:16.417Z,62.30
2022-12-29T23:02:45.449Z,62.30
2022-12-29T23:05:13.588Z,62.50
2022-12-29T23:07:42.042Z,62.50
2022-12-29T23:10:10.509Z,62.20
2022-12-29T23:12:38.461Z,62.40
2022-12-29T23:15:09.499Z,62.40
2022-12-29T23:17:37.478Z,62.40
2022-12-29T23:20:06.711Z,62.30
2022-12-29T23:22:34.628Z,62.30
2022-12-29T23:25:02.535Z,62.60
2022-12-29T23:27:30.571Z,62.40
2022-12-29T23:29:58.624Z,62.50
2022-12-29T23:32:40.625Z,62.60
2022-12-29T23:35:09.774Z,62.60
2022-12-29T23:37:37.818Z,62.60
2022-12-29T23:40:07.100Z,62.70
2022-12-29T23:42:34.813Z,62.40
2022-12-29T23:45:02.883Z,62.70
2022-12-29T23:47:32.230Z,62.80
2022-12-29T23:50:00.156Z,62.70
2022-12-29T23:52:28.084Z,62.70
2022-12-29T23:54:56.011Z,62.70
2022-12-29T23:57:24.624Z,62.80
2022-12-29T23:59:52.614Z,62.70
